sensor_id;sensor_type;location;lat;lon;timestamp;P1;durP1;ratioP1;P2;durP2;ratioP2
20928;SDS011;21895;47.072;15.132;2024-01-30T00:01:57;5.03;;;2.53;;
20928;SDS011;21895;47.072;15.132;2024-01-30T00:04:23;1.27;;;1.17;;
20928;SDS011;21895;47.072;15.132;2024-01-30T00:06:50;2.17;;;1.97;;
20928;SDS011;21895;47.072;15.132;2024-01-30T00:09:18;1.30;;;1.20;;
20928;SDS011;21895;47.072;15.132;2024-01-30T00:11:45;2.33;;;1.53;;
20928;SDS011;21895;47.072;15.132;2024-01-30T00:14:11;6.03;;;2.50;;
20928;SDS011;21895;47.072;15.132;2024-01-30T00:16:38;1.13;;;1.07;;
20928;SDS011;21895;47.072;15.132;2024-01-30T00:19:04;2.03;;;1.80;;
20928;SDS011;21895;47.072;15.132;2024-01-30T00:21:31;3.20;;;1.53;;
20928;SDS011;21895;47.072;15.132;2024-01-30T00:23:58;4.93;;;1.77;;
20928;SDS011;21895;47.072;15.132;2024-01-30T00:26:24;1.50;;;0.70;;
20928;SDS011;21895;47.072;15.132;2024-01-30T00:28:51;3.53;;;3.20;;
20928;SDS011;21895;47.072;15.132;2024-01-30T00:31:18;5.07;;;1.87;;
20928;SDS011;21895;47.072;15.132;2024-01-30T00:33:44;1.80;;;0.83;;
20928;SDS011;21895;47.072;15.132;2024-01-30T00:36:11;5.93;;;1.77;;
20928;SDS011;21895;47.072;15.132;2024-01-30T00:38:38;2.97;;;1.80;;
20928;SDS011;21895;47.072;15.132;2024-01-30T00:41:07;1.90;;;1.17;;
20928;SDS011;21895;47.072;15.132;2024-01-30T00:43:35;4.83;;;1.90;;
20928;SDS011;21895;47.072;15.132;2024-01-30T00:46:02;2.03;;;1.27;;
20928;SDS011;21895;47.072;15.132;2024-01-30T00:48:29;4.27;;;2.43;;
20928;SDS011;21895;47.072;15.132;2024-01-30T00:50:55;2.83;;;1.50;;
20928;SDS011;21895;47.072;15.132;2024-01-30T00:53:22;2.77;;;1.83;;
20928;SDS011;21895;47.072;15.132;2024-01-30T00:55:51;1.10;;;1.00;;
20928;SDS011;21895;47.072;15.132;2024-01-30T00:58:18;5.07;;;2.43;;
20928;SDS011;21895;47.072;15.132;2024-01-30T01:00:45;2.83;;;1.40;;
20928;SDS011;21895;47.072;15.132;2024-01-30T01:03:12;7.70;;;1.03;;
20928;SDS011;21895;47.072;15.132;2024-01-30T01:05:39;1.20;;;1.10;;
20928;SDS011;21895;47.072;15.132;2024-01-30T01:08:06;3.37;;;1.13;;
20928;SDS011;21895;47.072;15.132;2024-01-30T01:10:33;2.20;;;0.97;;
20928;SDS011;21895;47.072;15.132;2024-01-30T01:12:59;4.53;;;1.83;;
20928;SDS011;21895;47.072;15.132;2024-01-30T01:15:26;4.30;;;1.50;;
20928;SDS011;21895;47.072;15.132;2024-01-30T01:17:55;1.03;;;1.00;;
20928;SDS011;21895;47.072;15.132;2024-01-30T01:20:22;2.20;;;1.90;;
20928;SDS011;21895;47.072;15.132;2024-01-30T01:22:49;1.57;;;1.47;;
20928;SDS011;21895;47.072;15.132;2024-01-30T01:25:15;2.30;;;1.70;;
20928;SDS011;21895;47.072;15.132;2024-01-30T01:27:42;3.30;;;1.77;;
20928;SDS011;21895;47.072;15.132;2024-01-30T01:30:10;1.03;;;1.00;;
20928;SDS011;21895;47.072;15.132;2024-01-30T01:32:40;0.60;;;0.60;;
20928;SDS011;21895;47.072;15.132;2024-01-30T01:35:14;0.37;;;0.37;;
20928;SDS011;21895;47.072;15.132;2024-01-30T01:37:41;2.03;;;1.33;;
20928;SDS011;21895;47.072;15.132;2024-01-30T01:40:08;2.30;;;1.43;;
20928;SDS011;21895;47.072;15.132;2024-01-30T01:42:35;3.30;;;1.50;;
20928;SDS011;21895;47.072;15.132;2024-01-30T01:45:02;4.50;;;1.97;;
20928;SDS011;21895;47.072;15.132;2024-01-30T01:47:28;1.07;;;0.90;;
20928;SDS011;21895;47.072;15.132;2024-01-30T01:49:55;1.30;;;1.20;;
20928;SDS011;21895;47.072;15.132;2024-01-30T01:52:22;1.80;;;0.80;;
20928;SDS011;21895;47.072;15.132;2024-01-30T01:54:49;1.20;;;1.10;;
20928;SDS011;21895;47.072;15.132;2024-01-30T01:57:16;4.33;;;1.33;;
20928;SDS011;21895;47.072;15.132;2024-01-30T01:59:43;4.10;;;2.47;;
20928;SDS011;21895;47.072;15.132;2024-01-30T02:02:09;3.47;;;0.90;;
20928;SDS011;21895;47.072;15.132;2024-01-30T02:04:41;4.10;;;2.27;;
20928;SDS011;21895;47.072;15.132;2024-01-30T02:07:08;3.53;;;0.83;;
20928;SDS011;21895;47.072;15.132;2024-01-30T02:09:36;1.10;;;1.03;;
20928;SDS011;21895;47.072;15.132;2024-01-30T02:12:02;2.67;;;0.97;;
20928;SDS011;21895;47.072;15.132;2024-01-30T02:14:29;1.73;;;0.70;;
20928;SDS011;21895;47.072;15.132;2024-01-30T02:16:56;0.80;;;0.80;;
20928;SDS011;21895;47.072;15.132;2024-01-30T02:19:23;1.73;;;1.60;;
20928;SDS011;21895;47.072;15.132;2024-01-30T02:21:50;1.50;;;1.20;;
20928;SDS011;21895;47.072;15.132;2024-01-30T02:24:18;0.73;;;0.73;;
20928;SDS011;21895;47.072;15.132;2024-01-30T02:26:44;5.00;;;1.70;;
20928;SDS011;21895;47.072;15.132;2024-01-30T02:29:11;1.40;;;1.30;;
20928;SDS011;21895;47.072;15.132;2024-01-30T02:31:37;18.27;;;1.47;;
20928;SDS011;21895;47.072;15.132;2024-01-30T02:34:04;2.87;;;2.20;;
20928;SDS011;21895;47.072;15.132;2024-01-30T02:36:31;1.07;;;0.77;;
20928;SDS011;21895;47.072;15.132;2024-01-30T02:38:57;1.57;;;1.47;;
20928;SDS011;21895;47.072;15.132;2024-01-30T02:41:24;4.63;;;1.40;;
20928;SDS011;21895;47.072;15.132;2024-01-30T02:43:50;2.80;;;2.30;;
20928;SDS011;21895;47.072;15.132;2024-01-30T02:46:17;1.70;;;1.20;;
20928;SDS011;21895;47.072;15.132;2024-01-30T02:48:43;5.73;;;1.33;;
20928;SDS011;21895;47.072;15.132;2024-01-30T02:51:10;2.97;;;1.53;;
20928;SDS011;21895;47.072;15.132;2024-01-30T02:53:37;4.43;;;1.70;;
20928;SDS011;21895;47.072;15.132;2024-01-30T02:56:04;0.90;;;0.90;;
20928;SDS011;21895;47.072;15.132;2024-01-30T02:58:31;4.17;;;2.07;;
20928;SDS011;21895;47.072;15.132;2024-01-30T03:00:57;1.53;;;1.13;;
20928;SDS011;21895;47.072;15.132;2024-01-30T03:03:25;4.63;;;1.90;;
20928;SDS011;21895;47.072;15.132;2024-01-30T03:05:51;5.37;;;2.07;;
20928;SDS011;21895;47.072;15.132;2024-01-30T03:08:18;1.87;;;1.10;;
20928;SDS011;21895;47.072;15.132;2024-01-30T03:10:44;2.70;;;1.03;;
20928;SDS011;21895;47.072;15.132;2024-01-30T03:13:11;2.10;;;0.83;;
20928;SDS011;21895;47.072;15.132;2024-01-30T03:15:38;1.67;;;0.97;;
20928;SDS011;21895;47.072;15.132;2024-01-30T03:18:04;3.23;;;1.50;;
20928;SDS011;21895;47.072;15.132;2024-01-30T03:20:31;1.83;;;1.00;;
20928;SDS011;21895;47.072;15.132;2024-01-30T03:22:59;1.17;;;0.87;;
20928;SDS011;21895;47.072;15.132;2024-01-30T03:25:26;16.67;;;1.90;;
20928;SDS011;21895;47.072;15.132;2024-01-30T03:27:53;4.73;;;1.73;;
20928;SDS011;21895;47.072;15.132;2024-01-30T03:30:19;0.77;;;0.70;;
20928;SDS011;21895;47.072;15.132;2024-01-30T03:32:46;22.30;;;1.37;;
20928;SDS011;21895;47.072;15.132;2024-01-30T03:35:13;4.27;;;1.40;;
20928;SDS011;21895;47.072;15.132;2024-01-30T03:37:39;1.73;;;1.63;;
20928;SDS011;21895;47.072;15.132;2024-01-30T03:40:06;4.87;;;1.93;;
20928;SDS011;21895;47.072;15.132;2024-01-30T03:42:34;4.73;;;1.37;;
20928;SDS011;21895;47.072;15.132;2024-01-30T03:45:01;0.87;;;0.50;;
20928;SDS011;21895;47.072;15.132;2024-01-30T03:47:28;2.40;;;1.57;;
20928;SDS011;21895;47.072;15.132;2024-01-30T03:49:54;1.17;;;0.90;;
20928;SDS011;21895;47.072;15.132;2024-01-30T03:52:21;1.33;;;0.90;;
20928;SDS011;21895;47.072;15.132;2024-01-30T03:54:48;0.53;;;0.53;;
20928;SDS011;21895;47.072;15.132;2024-01-30T03:57:14;10.30;;;1.23;;
20928;SDS011;21895;47.072;15.132;2024-01-30T03:59:41;1.80;;;1.00;;
20928;SDS011;21895;47.072;15.132;2024-01-30T04:02:09;1.30;;;1.13;;
20928;SDS011;21895;47.072;15.132;2024-01-30T04:04:37;0.47;;;0.47;;
20928;SDS011;21895;47.072;15.132;2024-01-30T04:07:04;5.63;;;1.17;;
20928;SDS011;21895;47.072;15.132;2024-01-30T04:09:31;2.23;;;0.87;;
20928;SDS011;21895;47.072;15.132;2024-01-30T04:11:58;7.43;;;0.70;;
20928;SDS011;21895;47.072;15.132;2024-01-30T04:14:24;3.40;;;0.93;;
20928;SDS011;21895;47.072;15.132;2024-01-30T04:16:51;3.67;;;1.57;;
20928;SDS011;21895;47.072;15.132;2024-01-30T04:19:17;1.60;;;1.50;;
20928;SDS011;21895;47.072;15.132;2024-01-30T04:21:44;4.33;;;1.70;;
20928;SDS011;21895;47.072;15.132;2024-01-30T04:24:11;1.10;;;0.83;;
20928;SDS011;21895;47.072;15.132;2024-01-30T04:26:37;1.40;;;1.10;;
20928;SDS011;21895;47.072;15.132;2024-01-30T04:29:04;6.83;;;1.70;;
20928;SDS011;21895;47.072;15.132;2024-01-30T04:31:31;4.33;;;1.27;;
20928;SDS011;21895;47.072;15.132;2024-01-30T04:33:57;5.17;;;1.30;;
20928;SDS011;21895;47.072;15.132;2024-01-30T04:36:24;0.50;;;0.50;;
20928;SDS011;21895;47.072;15.132;2024-01-30T04:38:50;0.50;;;0.50;;
20928;SDS011;21895;47.072;15.132;2024-01-30T04:41:17;1.10;;;1.07;;
20928;SDS011;21895;47.072;15.132;2024-01-30T04:43:44;3.40;;;1.00;;
20928;SDS011;21895;47.072;15.132;2024-01-30T04:46:10;2.73;;;1.40;;
20928;SDS011;21895;47.072;15.132;2024-01-30T04:48:37;4.57;;;1.57;;
20928;SDS011;21895;47.072;15.132;2024-01-30T04:51:04;2.13;;;1.60;;
20928;SDS011;21895;47.072;15.132;2024-01-30T04:53:30;2.00;;;1.73;;
20928;SDS011;21895;47.072;15.132;2024-01-30T04:55:57;1.90;;;1.27;;
20928;SDS011;21895;47.072;15.132;2024-01-30T04:58:24;1.37;;;1.07;;
20928;SDS011;21895;47.072;15.132;2024-01-30T05:00:51;1.40;;;1.13;;
20928;SDS011;21895;47.072;15.132;2024-01-30T05:03:19;3.30;;;1.33;;
20928;SDS011;21895;47.072;15.132;2024-01-30T05:05:46;2.33;;;1.60;;
20928;SDS011;21895;47.072;15.132;2024-01-30T05:08:12;1.40;;;1.30;;
20928;SDS011;21895;47.072;15.132;2024-01-30T05:10:39;0.87;;;0.83;;
20928;SDS011;21895;47.072;15.132;2024-01-30T05:13:06;1.43;;;1.20;;
20928;SDS011;21895;47.072;15.132;2024-01-30T05:15:32;5.80;;;2.43;;
20928;SDS011;21895;47.072;15.132;2024-01-30T05:17:59;2.83;;;1.93;;
20928;SDS011;21895;47.072;15.132;2024-01-30T05:20:26;0.63;;;0.63;;
20928;SDS011;21895;47.072;15.132;2024-01-30T05:22:54;1.80;;;1.10;;
20928;SDS011;21895;47.072;15.132;2024-01-30T05:25:20;1.10;;;1.00;;
20928;SDS011;21895;47.072;15.132;2024-01-30T05:27:47;1.70;;;1.20;;
20928;SDS011;21895;47.072;15.132;2024-01-30T05:30:14;0.77;;;0.77;;
20928;SDS011;21895;47.072;15.132;2024-01-30T05:32:41;4.87;;;1.30;;
20928;SDS011;21895;47.072;15.132;2024-01-30T05:35:07;1.07;;;0.97;;
20928;SDS011;21895;47.072;15.132;2024-01-30T05:37:34;0.43;;;0.43;;
20928;SDS011;21895;47.072;15.132;2024-01-30T05:40:00;3.60;;;1.90;;
20928;SDS011;21895;47.072;15.132;2024-01-30T05:42:27;0.40;;;0.40;;
20928;SDS011;21895;47.072;15.132;2024-01-30T05:44:54;2.83;;;1.93;;
20928;SDS011;21895;47.072;15.132;2024-01-30T05:47:20;1.17;;;0.90;;
20928;SDS011;21895;47.072;15.132;2024-01-30T05:49:47;1.40;;;1.30;;
20928;SDS011;21895;47.072;15.132;2024-01-30T05:52:14;1.40;;;0.77;;
20928;SDS011;21895;47.072;15.132;2024-01-30T05:54:41;5.37;;;2.00;;
20928;SDS011;21895;47.072;15.132;2024-01-30T05:57:07;0.40;;;0.40;;
20928;SDS011;21895;47.072;15.132;2024-01-30T05:59:34;7.63;;;2.53;;
20928;SDS011;21895;47.072;15.132;2024-01-30T06:02:06;0.80;;;0.80;;
20928;SDS011;21895;47.072;15.132;2024-01-30T06:04:32;3.13;;;1.23;;
20928;SDS011;21895;47.072;15.132;2024-01-30T06:06:59;3.40;;;0.80;;
20928;SDS011;21895;47.072;15.132;2024-01-30T06:09:27;4.87;;;1.90;;
20928;SDS011;21895;47.072;15.132;2024-01-30T06:11:54;0.43;;;0.43;;
20928;SDS011;21895;47.072;15.132;2024-01-30T06:14:21;8.90;;;1.93;;
20928;SDS011;21895;47.072;15.132;2024-01-30T06:16:48;2.10;;;1.43;;
20928;SDS011;21895;47.072;15.132;2024-01-30T06:19:14;2.20;;;0.97;;
20928;SDS011;21895;47.072;15.132;2024-01-30T06:21:41;0.50;;;0.50;;
20928;SDS011;21895;47.072;15.132;2024-01-30T06:24:08;0.47;;;0.47;;
20928;SDS011;21895;47.072;15.132;2024-01-30T06:26:34;4.43;;;0.70;;
20928;SDS011;21895;47.072;15.132;2024-01-30T06:29:01;1.87;;;1.27;;
20928;SDS011;21895;47.072;15.132;2024-01-30T06:31:28;0.50;;;0.50;;
20928;SDS011;21895;47.072;15.132;2024-01-30T06:33:54;0.30;;;0.30;;
20928;SDS011;21895;47.072;15.132;2024-01-30T06:36:21;1.70;;;1.03;;
20928;SDS011;21895;47.072;15.132;2024-01-30T06:38:48;0.77;;;0.43;;
20928;SDS011;21895;47.072;15.132;2024-01-30T06:41:15;0.83;;;0.83;;
20928;SDS011;21895;47.072;15.132;2024-01-30T06:43:41;6.87;;;1.33;;
20928;SDS011;21895;47.072;15.132;2024-01-30T06:46:10;1.87;;;1.77;;
20928;SDS011;21895;47.072;15.132;2024-01-30T06:48:37;1.07;;;1.07;;
20928;SDS011;21895;47.072;15.132;2024-01-30T06:51:06;0.53;;;0.53;;
20928;SDS011;21895;47.072;15.132;2024-01-30T06:53:32;1.33;;;1.23;;
20928;SDS011;21895;47.072;15.132;2024-01-30T06:55:59;0.70;;;0.67;;
20928;SDS011;21895;47.072;15.132;2024-01-30T06:58:25;3.33;;;2.30;;
20928;SDS011;21895;47.072;15.132;2024-01-30T07:00:52;1.40;;;1.30;;
20928;SDS011;21895;47.072;15.132;2024-01-30T07:03:20;2.23;;;1.80;;
20928;SDS011;21895;47.072;15.132;2024-01-30T07:05:47;6.33;;;3.07;;
20928;SDS011;21895;47.072;15.132;2024-01-30T07:08:15;3.13;;;1.70;;
20928;SDS011;21895;47.072;15.132;2024-01-30T07:10:43;16.67;;;2.73;;
20928;SDS011;21895;47.072;15.132;2024-01-30T07:13:10;10.10;;;2.63;;
20928;SDS011;21895;47.072;15.132;2024-01-30T07:15:37;5.27;;;3.63;;
20928;SDS011;21895;47.072;15.132;2024-01-30T07:18:04;6.27;;;2.77;;
20928;SDS011;21895;47.072;15.132;2024-01-30T07:20:31;4.80;;;2.30;;
20928;SDS011;21895;47.072;15.132;2024-01-30T07:22:58;2.40;;;1.80;;
20928;SDS011;21895;47.072;15.132;2024-01-30T07:25:24;0.73;;;0.73;;
20928;SDS011;21895;47.072;15.132;2024-01-30T07:27:52;4.97;;;2.77;;
20928;SDS011;21895;47.072;15.132;2024-01-30T07:30:19;6.83;;;3.77;;
20928;SDS011;21895;47.072;15.132;2024-01-30T07:32:47;3.03;;;1.10;;
20928;SDS011;21895;47.072;15.132;2024-01-30T07:35:13;1.53;;;1.40;;
20928;SDS011;21895;47.072;15.132;2024-01-30T07:37:41;10.93;;;1.30;;
20928;SDS011;21895;47.072;15.132;2024-01-30T07:40:07;4.27;;;1.40;;
20928;SDS011;21895;47.072;15.132;2024-01-30T07:42:35;1.23;;;0.97;;
20928;SDS011;21895;47.072;15.132;2024-01-30T07:45:01;1.37;;;1.27;;
20928;SDS011;21895;47.072;15.132;2024-01-30T07:47:28;3.47;;;0.87;;
20928;SDS011;21895;47.072;15.132;2024-01-30T07:49:55;1.83;;;0.80;;
20928;SDS011;21895;47.072;15.132;2024-01-30T07:52:22;2.67;;;1.97;;
20928;SDS011;21895;47.072;15.132;2024-01-30T07:54:49;2.03;;;1.93;;
20928;SDS011;21895;47.072;15.132;2024-01-30T07:57:17;5.73;;;1.97;;
20928;SDS011;21895;47.072;15.132;2024-01-30T07:59:44;2.23;;;0.93;;
20928;SDS011;21895;47.072;15.132;2024-01-30T08:02:13;3.63;;;1.57;;
20928;SDS011;21895;47.072;15.132;2024-01-30T08:04:41;11.67;;;1.77;;
20928;SDS011;21895;47.072;15.132;2024-01-30T08:07:08;3.57;;;2.23;;
20928;SDS011;21895;47.072;15.132;2024-01-30T08:09:34;3.80;;;1.97;;
20928;SDS011;21895;47.072;15.132;2024-01-30T08:12:01;6.53;;;2.30;;
20928;SDS011;21895;47.072;15.132;2024-01-30T08:14:28;3.93;;;2.23;;
20928;SDS011;21895;47.072;15.132;2024-01-30T08:16:54;1.67;;;1.57;;
20928;SDS011;21895;47.072;15.132;2024-01-30T08:19:21;4.10;;;1.80;;
20928;SDS011;21895;47.072;15.132;2024-01-30T08:21:48;7.20;;;2.37;;
20928;SDS011;21895;47.072;15.132;2024-01-30T08:24:14;4.87;;;2.27;;
20928;SDS011;21895;47.072;15.132;2024-01-30T08:26:41;10.20;;;3.60;;
20928;SDS011;21895;47.072;15.132;2024-01-30T08:29:08;6.77;;;2.20;;
20928;SDS011;21895;47.072;15.132;2024-01-30T08:31:35;4.73;;;2.33;;
20928;SDS011;21895;47.072;15.132;2024-01-30T08:34:01;6.67;;;1.90;;
20928;SDS011;21895;47.072;15.132;2024-01-30T08:36:28;5.43;;;2.13;;
20928;SDS011;21895;47.072;15.132;2024-01-30T08:38:55;8.63;;;2.40;;
20928;SDS011;21895;47.072;15.132;2024-01-30T08:41:28;3.33;;;2.53;;
20928;SDS011;21895;47.072;15.132;2024-01-30T08:43:55;3.90;;;2.87;;
20928;SDS011;21895;47.072;15.132;2024-01-30T08:46:21;5.30;;;2.40;;
20928;SDS011;21895;47.072;15.132;2024-01-30T08:48:48;4.37;;;2.67;;
20928;SDS011;21895;47.072;15.132;2024-01-30T08:51:15;6.93;;;3.30;;
20928;SDS011;21895;47.072;15.132;2024-01-30T08:53:42;10.00;;;3.13;;
20928;SDS011;21895;47.072;15.132;2024-01-30T08:56:08;9.00;;;2.63;;
20928;SDS011;21895;47.072;15.132;2024-01-30T08:58:35;18.03;;;3.67;;
20928;SDS011;21895;47.072;15.132;2024-01-30T09:01:02;12.50;;;4.23;;
20928;SDS011;21895;47.072;15.132;2024-01-30T09:03:31;8.13;;;4.20;;
20928;SDS011;21895;47.072;15.132;2024-01-30T09:06:02;14.37;;;3.73;;
20928;SDS011;21895;47.072;15.132;2024-01-30T09:08:29;7.87;;;3.73;;
20928;SDS011;21895;47.072;15.132;2024-01-30T09:10:56;9.40;;;3.63;;
20928;SDS011;21895;47.072;15.132;2024-01-30T09:13:22;8.40;;;3.50;;
20928;SDS011;21895;47.072;15.132;2024-01-30T09:15:49;18.07;;;4.77;;
20928;SDS011;21895;47.072;15.132;2024-01-30T09:18:15;13.00;;;3.33;;
20928;SDS011;21895;47.072;15.132;2024-01-30T09:20:44;10.10;;;4.17;;
20928;SDS011;21895;47.072;15.132;2024-01-30T09:23:13;13.33;;;4.40;;
20928;SDS011;21895;47.072;15.132;2024-01-30T09:25:39;9.93;;;4.20;;
20928;SDS011;21895;47.072;15.132;2024-01-30T09:28:06;11.40;;;4.30;;
20928;SDS011;21895;47.072;15.132;2024-01-30T09:30:33;4.57;;;3.17;;
20928;SDS011;21895;47.072;15.132;2024-01-30T09:32:59;20.27;;;3.90;;
20928;SDS011;21895;47.072;15.132;2024-01-30T09:35:26;7.33;;;2.90;;
20928;SDS011;21895;47.072;15.132;2024-01-30T09:37:53;12.17;;;2.67;;
20928;SDS011;21895;47.072;15.132;2024-01-30T09:40:20;7.07;;;3.17;;
20928;SDS011;21895;47.072;15.132;2024-01-30T09:42:48;6.00;;;3.17;;
20928;SDS011;21895;47.072;15.132;2024-01-30T09:45:17;7.83;;;3.47;;
20928;SDS011;21895;47.072;15.132;2024-01-30T09:47:44;43.70;;;3.73;;
20928;SDS011;21895;47.072;15.132;2024-01-30T09:50:12;9.93;;;3.27;;
20928;SDS011;21895;47.072;15.132;2024-01-30T09:52:40;10.30;;;4.00;;
20928;SDS011;21895;47.072;15.132;2024-01-30T09:55:15;9.67;;;4.80;;
20928;SDS011;21895;47.072;15.132;2024-01-30T09:57:41;15.17;;;4.70;;
20928;SDS011;21895;47.072;15.132;2024-01-30T10:00:09;16.20;;;4.63;;
20928;SDS011;21895;47.072;15.132;2024-01-30T10:02:36;11.80;;;4.37;;
20928;SDS011;21895;47.072;15.132;2024-01-30T10:05:04;13.80;;;4.50;;
20928;SDS011;21895;47.072;15.132;2024-01-30T10:07:31;22.57;;;5.77;;
20928;SDS011;21895;47.072;15.132;2024-01-30T10:09:58;13.33;;;5.10;;
20928;SDS011;21895;47.072;15.132;2024-01-30T10:12:29;9.40;;;4.17;;
20928;SDS011;21895;47.072;15.132;2024-01-30T10:14:56;11.90;;;4.47;;
20928;SDS011;21895;47.072;15.132;2024-01-30T10:17:24;10.93;;;4.27;;
20928;SDS011;21895;47.072;15.132;2024-01-30T10:19:59;8.77;;;4.00;;
20928;SDS011;21895;47.072;15.132;2024-01-30T10:22:29;13.30;;;4.90;;
20928;SDS011;21895;47.072;15.132;2024-01-30T10:24:56;21.23;;;4.30;;
20928;SDS011;21895;47.072;15.132;2024-01-30T10:27:26;25.70;;;4.20;;
20928;SDS011;21895;47.072;15.132;2024-01-30T10:29:53;14.93;;;4.43;;
20928;SDS011;21895;47.072;15.132;2024-01-30T10:32:19;17.17;;;3.77;;
20928;SDS011;21895;47.072;15.132;2024-01-30T10:34:47;10.53;;;4.30;;
20928;SDS011;21895;47.072;15.132;2024-01-30T10:37:13;10.30;;;3.83;;
20928;SDS011;21895;47.072;15.132;2024-01-30T10:39:45;16.97;;;4.20;;
20928;SDS011;21895;47.072;15.132;2024-01-30T10:42:17;18.13;;;5.67;;
20928;SDS011;21895;47.072;15.132;2024-01-30T10:49:08;11.43;;;4.43;;
20928;SDS011;21895;47.072;15.132;2024-01-30T10:51:36;11.63;;;4.20;;
20928;SDS011;21895;47.072;15.132;2024-01-30T10:54:05;15.57;;;3.93;;
20928;SDS011;21895;47.072;15.132;2024-01-30T10:56:33;10.37;;;4.03;;
20928;SDS011;21895;47.072;15.132;2024-01-30T10:59:01;20.87;;;4.07;;
20928;SDS011;21895;47.072;15.132;2024-01-30T11:01:29;11.27;;;3.67;;
20928;SDS011;21895;47.072;15.132;2024-01-30T11:03:57;10.93;;;4.17;;
20928;SDS011;21895;47.072;15.132;2024-01-30T11:06:25;10.80;;;3.33;;
20928;SDS011;21895;47.072;15.132;2024-01-30T11:09:02;9.90;;;4.23;;
20928;SDS011;21895;47.072;15.132;2024-01-30T11:15:39;6.33;;;3.03;;
20928;SDS011;21895;47.072;15.132;2024-01-30T11:18:08;16.43;;;3.07;;
20928;SDS011;21895;47.072;15.132;2024-01-30T11:20:35;8.20;;;3.00;;
20928;SDS011;21895;47.072;15.132;2024-01-30T11:23:02;11.53;;;3.33;;
20928;SDS011;21895;47.072;15.132;2024-01-30T11:25:33;12.00;;;3.10;;
20928;SDS011;21895;47.072;15.132;2024-01-30T11:28:00;9.43;;;3.10;;
20928;SDS011;21895;47.072;15.132;2024-01-30T11:30:32;5.70;;;2.70;;
20928;SDS011;21895;47.072;15.132;2024-01-30T11:33:05;16.60;;;3.57;;
20928;SDS011;21895;47.072;15.132;2024-01-30T11:35:39;8.60;;;3.53;;
20928;SDS011;21895;47.072;15.132;2024-01-30T11:38:13;6.30;;;2.97;;
20928;SDS011;21895;47.072;15.132;2024-01-30T11:40:40;8.27;;;2.57;;
20928;SDS011;21895;47.072;15.132;2024-01-30T11:43:07;6.07;;;2.73;;
20928;SDS011;21895;47.072;15.132;2024-01-30T11:45:35;8.97;;;2.60;;
20928;SDS011;21895;47.072;15.132;2024-01-30T11:48:02;12.10;;;3.83;;
20928;SDS011;21895;47.072;15.132;2024-01-30T11:50:31;8.07;;;3.47;;
20928;SDS011;21895;47.072;15.132;2024-01-30T11:52:59;8.10;;;3.27;;
20928;SDS011;21895;47.072;15.132;2024-01-30T11:55:26;9.87;;;3.30;;
20928;SDS011;21895;47.072;15.132;2024-01-30T11:57:59;10.77;;;3.70;;
20928;SDS011;21895;47.072;15.132;2024-01-30T12:00:26;13.63;;;3.80;;
20928;SDS011;21895;47.072;15.132;2024-01-30T12:02:53;21.23;;;4.90;;
20928;SDS011;21895;47.072;15.132;2024-01-30T12:05:21;12.50;;;4.30;;
20928;SDS011;21895;47.072;15.132;2024-01-30T12:07:49;12.83;;;3.73;;
20928;SDS011;21895;47.072;15.132;2024-01-30T12:10:18;12.63;;;3.70;;
20928;SDS011;21895;47.072;15.132;2024-01-30T12:12:47;11.17;;;3.30;;
20928;SDS011;21895;47.072;15.132;2024-01-30T12:15:16;16.37;;;3.50;;
20928;SDS011;21895;47.072;15.132;2024-01-30T12:17:47;7.80;;;3.60;;
20928;SDS011;21895;47.072;15.132;2024-01-30T12:20:15;11.47;;;4.00;;
20928;SDS011;21895;47.072;15.132;2024-01-30T12:22:47;11.20;;;4.10;;
20928;SDS011;21895;47.072;15.132;2024-01-30T12:25:15;11.57;;;4.03;;
20928;SDS011;21895;47.072;15.132;2024-01-30T12:27:47;8.57;;;3.70;;
20928;SDS011;21895;47.072;15.132;2024-01-30T12:30:19;12.17;;;3.67;;
20928;SDS011;21895;47.072;15.132;2024-01-30T12:32:50;21.50;;;5.17;;
20928;SDS011;21895;47.072;15.132;2024-01-30T12:35:18;11.57;;;4.37;;
20928;SDS011;21895;47.072;15.132;2024-01-30T12:37:47;9.33;;;3.53;;
20928;SDS011;21895;47.072;15.132;2024-01-30T12:40:14;8.93;;;3.87;;
20928;SDS011;21895;47.072;15.132;2024-01-30T12:42:43;11.97;;;3.83;;
20928;SDS011;21895;47.072;15.132;2024-01-30T12:45:14;14.07;;;4.40;;
20928;SDS011;21895;47.072;15.132;2024-01-30T12:47:41;13.40;;;4.13;;
20928;SDS011;21895;47.072;15.132;2024-01-30T12:50:08;11.77;;;3.43;;
20928;SDS011;21895;47.072;15.132;2024-01-30T12:52:35;11.77;;;4.20;;
20928;SDS011;21895;47.072;15.132;2024-01-30T12:55:02;16.87;;;3.80;;
20928;SDS011;21895;47.072;15.132;2024-01-30T12:57:30;7.97;;;3.33;;
20928;SDS011;21895;47.072;15.132;2024-01-30T12:59:56;5.63;;;2.97;;
20928;SDS011;21895;47.072;15.132;2024-01-30T13:02:23;20.53;;;5.07;;
20928;SDS011;21895;47.072;15.132;2024-01-30T13:04:50;14.13;;;4.67;;
20928;SDS011;21895;47.072;15.132;2024-01-30T13:07:17;7.00;;;3.67;;
20928;SDS011;21895;47.072;15.132;2024-01-30T13:09:46;7.93;;;3.37;;
20928;SDS011;21895;47.072;15.132;2024-01-30T13:12:13;11.27;;;3.90;;
20928;SDS011;21895;47.072;15.132;2024-01-30T13:14:39;12.43;;;3.90;;
20928;SDS011;21895;47.072;15.132;2024-01-30T13:17:06;10.30;;;3.57;;
20928;SDS011;21895;47.072;15.132;2024-01-30T13:19:32;11.73;;;3.27;;
20928;SDS011;21895;47.072;15.132;2024-01-30T13:21:59;13.37;;;4.13;;
20928;SDS011;21895;47.072;15.132;2024-01-30T13:24:26;9.63;;;4.03;;
20928;SDS011;21895;47.072;15.132;2024-01-30T13:26:52;11.17;;;4.00;;
20928;SDS011;21895;47.072;15.132;2024-01-30T13:29:19;10.70;;;4.27;;
20928;SDS011;21895;47.072;15.132;2024-01-30T13:31:46;8.67;;;3.27;;
20928;SDS011;21895;47.072;15.132;2024-01-30T13:34:12;13.23;;;4.13;;
20928;SDS011;21895;47.072;15.132;2024-01-30T13:36:42;8.90;;;3.90;;
20928;SDS011;21895;47.072;15.132;2024-01-30T13:39:08;9.03;;;4.23;;
20928;SDS011;21895;47.072;15.132;2024-01-30T13:41:36;10.63;;;3.30;;
20928;SDS011;21895;47.072;15.132;2024-01-30T13:44:03;13.53;;;3.73;;
20928;SDS011;21895;47.072;15.132;2024-01-30T13:46:30;20.17;;;5.20;;
20928;SDS011;21895;47.072;15.132;2024-01-30T13:48:57;16.60;;;4.53;;
20928;SDS011;21895;47.072;15.132;2024-01-30T13:51:23;12.33;;;4.30;;
20928;SDS011;21895;47.072;15.132;2024-01-30T13:53:50;14.67;;;4.40;;
20928;SDS011;21895;47.072;15.132;2024-01-30T13:56:17;12.50;;;3.27;;
20928;SDS011;21895;47.072;15.132;2024-01-30T13:58:43;24.43;;;4.43;;
20928;SDS011;21895;47.072;15.132;2024-01-30T14:01:10;13.17;;;4.13;;
20928;SDS011;21895;47.072;15.132;2024-01-30T14:03:37;15.97;;;4.60;;
20928;SDS011;21895;47.072;15.132;2024-01-30T14:06:04;10.00;;;3.93;;
20928;SDS011;21895;47.072;15.132;2024-01-30T14:08:31;7.03;;;3.37;;
20928;SDS011;21895;47.072;15.132;2024-01-30T14:10:58;11.30;;;3.73;;
20928;SDS011;21895;47.072;15.132;2024-01-30T14:13:25;7.43;;;3.63;;
20928;SDS011;21895;47.072;15.132;2024-01-30T14:15:52;13.30;;;3.60;;
20928;SDS011;21895;47.072;15.132;2024-01-30T14:18:19;10.63;;;4.17;;
20928;SDS011;21895;47.072;15.132;2024-01-30T14:20:46;12.37;;;3.83;;
20928;SDS011;21895;47.072;15.132;2024-01-30T14:23:13;16.73;;;4.67;;
20928;SDS011;21895;47.072;15.132;2024-01-30T14:25:43;10.53;;;4.30;;
20928;SDS011;21895;47.072;15.132;2024-01-30T14:28:10;14.10;;;4.13;;
20928;SDS011;21895;47.072;15.132;2024-01-30T14:30:36;13.23;;;4.20;;
20928;SDS011;21895;47.072;15.132;2024-01-30T14:33:03;11.70;;;3.70;;
20928;SDS011;21895;47.072;15.132;2024-01-30T14:35:30;8.67;;;3.80;;
20928;SDS011;21895;47.072;15.132;2024-01-30T14:37:57;16.80;;;3.90;;
20928;SDS011;21895;47.072;15.132;2024-01-30T14:40:23;9.27;;;3.80;;